Time;durP1;ratioP1;P1;durP2;ratioP2;P2;SDS_P1;SDS_P2;PMS_P1;PMS_P2;Temp;Humidity;BMP_temperature;BMP_pressure;BME280_temperature;BME280_humidity;BME280_pressure;Samples;Min_cycle;Max_cycle;Signal;HPM_P1;HPM_P2
2022/10/25 00:01:20;;;;;;;14.60;5.43;;;;;;;13.59;100.00;100879.66;5033223;28;20112;-52
2022/10/25 00:03:45;;;;;;;14.02;4.78;;;;;;;13.51;100.00;100874.69;5034876;28;20030;-50
2022/10/25 00:06:26;;;;;;;11.10;4.78;;;;;;;13.66;100.00;100888.19;5032937;28;20044;-53
2022/10/25 00:08:51;;;;;;;11.88;5.82;;;;;;;13.70;100.00;100895.03;5035681;28;20033;-55
2022/10/25 00:11:22;;;;;;;10.05;4.15;;;;;;;13.37;100.00;100845.34;5035552;28;20071;-53
2022/10/25 00:13:49;;;;;;;10.10;4.25;;;;;;;13.70;100.00;100897.69;5035283;28;20109;-50
2022/10/25 00:16:16;;;;;;;12.43;4.05;;;;;;;13.73;100.00;100901.06;5034008;28;20040;-58
2022/10/25 00:18:41;;;;;;;10.50;3.55;;;;;;;13.76;100.00;100900.06;5050732;28;20116;-56
2022/10/25 00:21:07;;;;;;;11.48;4.22;;;;;;;13.76;100.00;100911.50;5035255;28;20124;-52
2022/10/25 00:23:32;;;;;;;16.13;3.72;;;;;;;13.50;100.00;100866.84;5050385;28;20110;-53
2022/10/25 00:26:05;;;;;;;11.60;3.13;;;;;;;13.74;100.00;100909.88;5034808;28;20046;-50
2022/10/25 00:28:30;;;;;;;10.25;3.13;;;;;;;13.79;100.00;100911.38;5034889;28;20095;-51
2022/10/25 00:31:04;;;;;;;14.90;3.70;;;;;;;13.76;100.00;100906.22;5035084;28;20465;-52
2022/10/25 00:33:30;;;;;;;8.80;2.80;;;;;;;13.42;100.00;100866.31;5033287;28;20050;-50
2022/10/25 00:35:56;;;;;;;10.45;3.30;;;;;;;13.68;100.00;100916.28;5034946;28;20037;-50
2022/10/25 00:38:21;;;;;;;12.40;2.88;;;;;;;13.69;100.00;100914.50;5034577;28;20381;-51
2022/10/25 00:40:47;;;;;;;15.27;3.58;;;;;;;13.69;100.00;100912.69;5034483;28;20116;-53
2022/10/25 00:43:33;;;;;;;9.48;2.85;;;;;;;13.62;100.00;100910.41;5035012;28;20084;-50
2022/10/25 00:46:00;;;;;;;13.52;2.97;;;;;;;13.36;100.00;100871.88;5034437;28;20491;-49
2022/10/25 00:48:26;;;;;;;9.27;3.30;;;;;;;13.37;100.00;100860.34;5034507;28;20065;-52
2022/10/25 00:50:53;;;;;;;13.30;3.70;;;;;;;13.71;100.00;100916.16;5034221;28;20438;-50
2022/10/25 00:53:31;;;;;;;15.45;3.65;;;;;;;13.40;100.00;100860.22;5049710;28;20032;-49
2022/10/25 00:56:18;;;;;;;12.43;3.42;;;;;;;13.76;100.00;100918.59;5034596;28;20025;-51
2022/10/25 00:58:51;;;;;;;16.05;3.50;;;;;;;13.70;100.00;100922.38;5033208;28;20041;-52
2022/10/25 01:01:17;;;;;;;15.63;3.72;;;;;;;13.39;100.00;100862.03;5034295;28;20033;-50
2022/10/25 01:03:43;;;;;;;13.43;2.75;;;;;;;13.16;100.00;100819.88;5034593;28;20044;-55
2022/10/25 01:06:17;;;;;;;12.60;2.97;;;;;;;13.70;100.00;100919.72;5049635;28;20393;-54
2022/10/25 01:08:44;;;;;;;11.98;3.00;;;;;;;13.69;100.00;100933.03;5033282;28;20048;-48
2022/10/25 01:11:09;;;;;;;10.75;3.15;;;;;;;13.22;100.00;100855.75;5033148;28;20099;-55
2022/10/25 01:13:35;;;;;;;13.52;3.38;;;;;;;13.60;100.00;100921.03;5049570;28;20458;-52
2022/10/25 01:16:11;;;;;;;10.07;2.67;;;;;;;13.54;100.00;100923.97;5033803;28;20036;-52
2022/10/25 01:19:12;;;;;;;12.23;3.00;;;;;;;13.51;100.00;100927.56;5034053;28;20152;-54
2022/10/25 01:21:52;;;;;;;16.03;3.80;;;;;;;13.40;100.00;100921.03;5031882;28;20495;-52
2022/10/25 01:24:56;;;;;;;16.83;3.58;;;;;;;13.04;100.00;100875.00;5032288;28;20026;-51
2022/10/25 01:27:36;;;;;;;17.98;3.25;;;;;;;13.32;100.00;100931.94;5029571;28;20069;-49
2022/10/25 01:30:08;;;;;;;13.73;2.95;;;;;;;13.27;100.00;100938.34;5049306;28;20162;-51
2022/10/25 01:32:44;;;;;;;19.75;3.25;;;;;;;13.25;100.00;100934.94;5049002;28;20459;-48
2022/10/25 01:35:27;;;;;;;15.32;3.35;;;;;;;12.91;100.00;100872.00;5049095;28;20044;-49
2022/10/25 01:38:15;;;;;;;12.45;3.00;;;;;;;13.23;100.00;100945.53;5033721;28;20029;-52
2022/10/25 01:41:01;;;;;;;14.57;3.63;;;;;;;13.26;100.00;100955.13;5033665;28;20112;-53
2022/10/25 01:43:33;;;;;;;13.32;2.90;;;;;;;13.22;100.00;100942.97;5033386;28;20496;-49
2022/10/25 01:46:37;;;;;;;14.77;4.13;;;;;;;13.17;100.00;100948.44;5033160;28;20480;-53
2022/10/25 01:49:05;;;;;;;15.35;3.60;;;;;;;12.80;100.00;100888.28;5032726;28;20049;-49
2022/10/25 01:51:34;;;;;;;15.13;3.53;;;;;;;12.84;100.00;100887.22;5048720;28;20044;-55
2022/10/25 01:54:00;;;;;;;16.92;3.75;;;;;;;13.23;100.00;100944.69;5033166;28;20084;-54
2022/10/25 01:56:33;;;;;;;13.75;3.30;;;;;;;12.92;100.00;100890.44;5033483;28;20033;-48
2022/10/25 01:59:10;;;;;;;22.27;3.92;;;;;;;13.24;100.00;100939.34;5048650;28;20033;-52
2022/10/25 02:01:57;;;;;;;20.75;4.55;;;;;;;13.30;100.00;100941.72;5033267;28;20090;-50
2022/10/25 02:04:25;;;;;;;13.45;3.97;;;;;;;13.31;100.00;100948.72;5048313;28;20029;-48
2022/10/25 02:06:56;;;;;;;16.52;3.65;;;;;;;13.31;100.00;100951.38;5033084;28;20447;-49
2022/10/25 02:09:48;;;;;;;16.23;3.55;;;;;;;13.35;100.00;100958.25;5032895;28;20471;-54
2022/10/25 02:12:13;;;;;;;;;;;;;;;13.40;100.00;100956.28;5033607;28;20029;-51
2022/10/25 02:14:46;;;;;;;16.63;3.47;;;;;;;13.07;100.00;100907.44;5048227;28;19913;-55
2022/10/25 02:17:22;;;;;;;18.55;4.05;;;;;;;13.17;100.00;100919.38;5048532;28;20040;-51
2022/10/25 02:19:50;;;;;;;18.95;4.00;;;;;;;13.45;100.00;100956.09;5048385;28;20053;-51
2022/10/25 02:22:17;;;;;;;16.02;4.22;;;;;;;13.50;100.00;100957.63;5031329;28;20034;-53
2022/10/25 02:24:44;;;;;;;14.50;3.97;;;;;;;13.53;100.00;100961.91;5048004;28;20037;-57
2022/10/25 02:27:10;;;;;;;22.02;4.53;;;;;;;13.51;100.00;100947.91;5032849;28;20033;-51
2022/10/25 02:29:36;;;;;;;17.20;4.25;;;;;;;13.30;100.00;100922.38;5031776;28;20033;-52
2022/10/25 02:32:03;;;;;;;13.10;3.58;;;;;;;13.23;100.00;100912.97;5032458;28;20045;-53
2022/10/25 02:34:28;;;;;;;16.80;3.92;;;;;;;13.26;100.00;100932.19;5030463;28;20141;-51
2022/10/25 02:36:53;;;;;;;25.00;4.05;;;;;;;13.46;100.00;100966.59;5032489;28;20499;-53
2022/10/25 02:39:23;;;;;;;17.75;4.35;;;;;;;13.11;100.00;100914.34;5032628;28;20090;-56
2022/10/25 02:41:48;;;;;;;21.17;4.47;;;;;;;13.20;100.00;100939.50;5032799;28;20517;-55
2022/10/25 02:44:13;;;;;;;20.90;3.65;;;;;;;13.10;100.00;100919.69;5031859;28;20145;-55
2022/10/25 02:46:39;;;;;;;19.33;4.32;;;;;;;13.39;100.00;100972.22;5032569;28;20053;-48
2022/10/25 02:49:04;;;;;;;26.75;4.53;;;;;;;13.36;100.00;100970.56;5031304;28;20500;-51
2022/10/25 02:51:29;;;;;;;16.77;4.93;;;;;;;13.36;100.00;100974.97;5032442;28;20503;-59
2022/10/25 02:53:55;;;;;;;24.25;3.85;;;;;;;13.35;100.00;100974.13;5032064;28;20310;-55
2022/10/25 02:56:21;;;;;;;17.70;3.50;;;;;;;13.07;100.00;100912.72;5032371;28;20121;-52
2022/10/25 02:58:48;;;;;;;21.23;4.18;;;;;;;13.16;100.00;100936.16;5032634;28;20041;-56
2022/10/25 03:01:15;;;;;;;20.50;4.00;;;;;;;12.69;100.00;100869.38;5047819;28;20037;-53
2022/10/25 03:03:40;;;;;;;18.45;3.60;;;;;;;12.89;100.00;100922.25;5031109;28;20029;-51
2022/10/25 03:06:07;;;;;;;24.25;5.10;;;;;;;13.21;100.00;100979.13;5047538;28;20041;-54
2022/10/25 03:08:32;;;;;;;18.80;4.65;;;;;;;13.21;100.00;100980.91;5047682;28;20038;-50
2022/10/25 03:10:58;;;;;;;15.82;3.35;;;;;;;12.90;100.00;100929.25;5031831;28;20492;-55
2022/10/25 03:13:23;;;;;;;15.95;3.97;;;;;;;13.18;100.00;100986.31;5032536;28;20442;-49
2022/10/25 03:15:49;;;;;;;19.30;3.97;;;;;;;13.16;100.00;100982.88;5032383;28;20471;-53
2022/10/25 03:18:15;;;;;;;25.23;4.38;;;;;;;13.03;100.00;100971.91;5032006;28;20036;-54
2022/10/25 03:20:41;;;;;;;23.95;3.90;;;;;;;12.81;100.00;100936.69;5032041;28;20037;-52
2022/10/25 03:23:06;;;;;;;20.80;3.42;;;;;;;13.01;100.00;100981.69;5047403;28;20041;-55
2022/10/25 03:25:32;;;;;;;21.00;4.28;;;;;;;12.79;100.00;100946.44;5031809;28;20034;-55
2022/10/25 03:27:59;;;;;;;18.67;3.78;;;;;;;13.06;100.00;101013.19;5047709;28;20041;-56
2022/10/25 03:30:25;;;;;;;18.42;4.00;;;;;;;12.90;100.00;100982.09;5032144;28;20461;-48
2022/10/25 03:32:51;;;;;;;21.45;3.75;;;;;;;12.90;100.00;100990.00;5047595;28;20029;-53
2022/10/25 03:35:16;;;;;;;13.05;3.55;;;;;;;12.82;100.00;100975.38;5031934;28;20081;-51
2022/10/25 03:37:42;;;;;;;18.67;3.83;;;;;;;12.68;100.00;100961.88;5047133;28;20480;-51
2022/10/25 03:40:08;;;;;;;14.52;3.38;;;;;;;12.96;100.00;101024.13;5031828;28;20117;-52
2022/10/25 03:42:34;;;;;;;19.73;3.80;;;;;;;12.70;100.00;100974.09;5032017;28;20033;-53
2022/10/25 03:44:59;;;;;;;23.75;4.40;;;;;;;13.04;100.00;101020.31;5031899;28;20040;-55
2022/10/25 03:47:24;;;;;;;22.40;3.45;;;;;;;13.06;100.00;101040.47;5047326;28;20037;-53
2022/10/25 03:49:49;;;;;;;21.17;3.75;;;;;;;13.11;100.00;101032.38;5031970;28;20120;-53
2022/10/25 03:52:15;;;;;;;22.30;3.65;;;;;;;12.81;100.00;100981.59;5031874;28;20080;-53
2022/10/25 03:54:41;;;;;;;23.88;3.85;;;;;;;12.84;100.00;100979.69;5032132;28;20462;-48
2022/10/25 03:57:06;;;;;;;24.33;4.38;;;;;;;13.20;100.00;101038.19;5032020;28;20536;-53
2022/10/25 03:59:32;;;;;;;15.38;2.70;;;;;;;13.02;100.00;101004.50;5031731;28;20113;-57
2022/10/25 04:01:57;;;;;;;13.88;3.53;;;;;;;13.20;100.00;101032.91;5047016;28;20117;-48
2022/10/25 04:04:22;;;;;;;22.23;4.18;;;;;;;13.09;100.00;101029.81;5031870;28;20038;-50
2022/10/25 04:06:48;;;;;;;20.38;3.97;;;;;;;13.07;100.00;101034.28;5031814;28;20144;-50
2022/10/25 04:09:13;;;;;;;18.60;4.93;;;;;;;12.73;100.00;100973.97;5033481;28;20029;-50
2022/10/25 04:11:39;;;;;;;24.80;4.10;;;;;;;13.13;100.00;101043.78;5050741;28;20029;-49
2022/10/25 04:14:04;;;;;;;20.02;3.90;;;;;;;12.75;100.00;100981.84;5035354;28;20041;-50
2022/10/25 04:16:29;;;;;;;18.83;4.45;;;;;;;12.93;100.00;101029.53;5035119;28;20069;-50
2022/10/25 04:18:56;;;;;;;19.67;3.88;;;;;;;12.98;100.00;101048.72;5035322;28;20091;-47
2022/10/25 04:21:22;;;;;;;20.38;4.43;;;;;;;12.93;100.00;101050.66;5034838;28;20037;-50
2022/10/25 04:23:48;;;;;;;21.25;4.13;;;;;;;12.62;100.00;100994.66;5050422;28;20038;-52
2022/10/25 04:26:16;;;;;;;25.27;5.20;;;;;;;12.96;100.00;101060.25;5034050;28;20033;-52
2022/10/25 04:28:52;;;;;;;18.85;4.57;;;;;;;12.98;100.00;101069.00;5050233;28;20038;-51
2022/10/25 04:31:17;;;;;;;27.15;5.25;;;;;;;12.74;100.00;101027.66;5035119;28;20033;-51
2022/10/25 04:33:43;;;;;;;21.02;4.55;;;;;;;13.02;100.00;101067.09;5033554;28;20140;-55
2022/10/25 04:36:09;;;;;;;22.33;4.63;;;;;;;12.96;100.00;101087.53;5034645;28;20047;-52
2022/10/25 04:38:34;;;;;;;22.05;4.22;;;;;;;12.85;100.00;101067.72;5034292;28;20132;-52
2022/10/25 04:41:00;;;;;;;20.30;5.07;;;;;;;12.86;100.00;101090.59;5034696;28;20087;-51
2022/10/25 04:43:26;;;;;;;18.23;4.40;;;;;;;12.69;100.00;101078.03;5034968;28;20060;-51
2022/10/25 04:45:52;;;;;;;20.63;5.35;;;;;;;12.73;100.00;101099.88;5034785;28;20042;-49
2022/10/25 04:48:18;;;;;;;18.80;5.13;;;;;;;12.42;100.00;101031.50;5035156;28;20519;-53
2022/10/25 04:50:43;;;;;;;20.30;5.40;;;;;;;12.66;100.00;101072.84;5032835;28;20026;-49
2022/10/25 04:53:09;;;;;;;27.63;7.10;;;;;;;12.43;100.00;101025.31;5049627;28;20046;-54
2022/10/25 04:55:34;;;;;;;19.77;5.90;;;;;;;12.47;100.00;101041.88;5034382;28;20465;-52
2022/10/25 04:58:00;;;;;;;24.50;6.03;;;;;;;12.87;100.00;101101.09;5034666;28;20511;-55
2022/10/25 05:00:25;;;;;;;19.25;5.80;;;;;;;12.55;100.00;101040.69;5034333;28;20041;-50
2022/10/25 05:02:51;;;;;;;23.17;6.05;;;;;;;12.70;100.00;101066.53;5033318;28;20037;-50
2022/10/25 05:05:17;;;;;;;24.55;7.07;;;;;;;12.90;100.00;101090.41;5034132;28;20069;-53
2022/10/25 05:07:42;;;;;;;25.20;6.45;;;;;;;13.02;100.00;101096.16;5048677;28;20064;-52
2022/10/25 05:10:08;;;;;;;25.25;6.80;;;;;;;12.85;100.00;101065.94;5054304;28;20528;-52
2022/10/25 05:12:34;;;;;;;21.50;6.50;;;;;;;13.09;100.00;101108.25;5053948;28;20511;-51
2022/10/25 05:14:59;;;;;;;13.40;5.95;;;;;;;13.04;100.00;101104.88;5053656;28;20495;-57
2022/10/25 05:17:25;;;;;;;20.13;6.28;;;;;;;13.05;100.00;101110.09;5069311;28;20408;-54
2022/10/25 05:19:50;;;;;;;21.65;6.97;;;;;;;13.07;100.00;101113.56;5052096;28;20036;-50
2022/10/25 05:22:15;;;;;;;23.38;6.75;;;;;;;13.09;100.00;101109.09;5052571;28;20033;-55
2022/10/25 05:24:41;;;;;;;16.42;5.30;;;;;;;13.11;100.00;101114.31;5053881;28;20033;-55
2022/10/25 05:27:06;;;;;;;25.58;6.43;;;;;;;13.08;100.00;101106.50;5053976;28;20074;-54
2022/10/25 05:29:32;;;;;;;21.70;5.43;;;;;;;13.02;100.00;101112.03;5053769;28;20120;-55
2022/10/25 05:31:58;;;;;;;20.65;5.95;;;;;;;13.05;100.00;101118.03;5052966;28;20041;-49
2022/10/25 05:34:24;;;;;;;19.20;5.47;;;;;;;13.02;100.00;101122.59;5052773;28;20056;-51
2022/10/25 05:36:50;;;;;;;16.27;5.47;;;;;;;12.76;100.00;101090.06;5052833;28;20037;-52
2022/10/25 05:39:15;;;;;;;15.10;4.90;;;;;;;12.94;100.00;101130.78;5053301;28;20041;-57
2022/10/25 05:41:41;;;;;;;20.50;6.30;;;;;;;12.94;100.00;101141.34;5052964;28;20040;-52
2022/10/25 05:44:07;;;;;;;17.85;6.00;;;;;;;11.96;100.00;100968.13;5053502;28;20465;-51
2022/10/25 05:46:32;;;;;;;15.68;5.75;;;;;;;12.60;100.00;101081.00;5053154;28;20033;-49
2022/10/25 05:48:58;;;;;;;13.88;6.15;;;;;;;12.59;100.00;101083.69;5053125;28;21665;-52
2022/10/25 05:51:26;;;;;;;16.08;7.47;;;;;;;12.66;100.00;101098.41;5051727;28;20116;-57
2022/10/25 05:53:56;;;;;;;17.95;7.05;;;;;;;12.53;100.00;101095.34;5053377;28;20380;-49
2022/10/25 05:56:23;;;;;;;16.65;7.15;;;;;;;12.47;100.00;101097.31;5051999;28;20155;-52
2022/10/25 05:58:49;;;;;;;18.83;7.10;;;;;;;12.68;100.00;101154.66;5053056;28;20029;-54
2022/10/25 06:01:16;;;;;;;15.27;6.68;;;;;;;12.58;100.00;101154.13;5052498;28;20037;-54
2022/10/25 06:03:42;;;;;;;16.67;6.55;;;;;;;12.25;100.00;101110.44;5052909;28;20423;-50
2022/10/25 06:06:10;;;;;;;15.63;7.38;;;;;;;12.50;100.00;101158.81;5052567;28;20121;-54
2022/10/25 06:08:36;;;;;;;19.88;8.00;;;;;;;12.45;100.00;101157.25;5051587;28;20476;-54
2022/10/25 06:11:07;;;;;;;16.63;7.22;;;;;;;12.37;100.00;101155.72;5051751;28;20029;-54
2022/10/25 06:13:32;;;;;;;21.88;7.70;;;;;;;11.97;100.00;101091.19;5052888;28;20040;-54
2022/10/25 06:15:58;;;;;;;22.55;8.80;;;;;;;12.30;100.00;101153.38;5052951;28;20396;-56
2022/10/25 06:18:23;;;;;;;16.08;8.15;;;;;;;12.23;100.00;101138.69;5052704;28;20499;-51
2022/10/25 06:20:49;;;;;;;19.05;8.85;;;;;;;12.22;100.00;101142.22;5051488;28;20048;-51
2022/10/25 06:23:14;;;;;;;16.17;7.82;;;;;;;12.24;100.00;101166.78;5053018;28;20072;-50
2022/10/25 06:25:39;;;;;;;23.73;9.65;;;;;;;12.27;100.00;101178.09;5052699;28;20468;-49
2022/10/25 06:28:05;;;;;;;31.20;10.82;;;;;;;12.23;100.00;101171.19;5052725;28;20037;-54
2022/10/25 06:30:31;;;;;;;22.80;10.43;;;;;;;12.21;100.00;101175.66;5051203;28;20072;-53
2022/10/25 06:32:56;;;;;;;17.52;10.05;;;;;;;11.94;100.00;101123.81;5052337;28;20082;-53
2022/10/25 06:35:22;;;;;;;21.90;10.52;;;;;;;12.26;100.00;101184.28;5051250;28;20053;-51
2022/10/25 06:37:47;;;;;;;35.10;11.02;;;;;;;12.25;100.00;101187.84;5052650;28;20072;-55
2022/10/25 06:40:12;;;;;;;32.05;11.13;;;;;;;12.20;100.00;101187.13;5067790;28;20033;-53
2022/10/25 06:42:38;;;;;;;27.27;10.88;;;;;;;12.18;100.00;101178.41;5052383;28;20025;-51
2022/10/25 06:45:03;;;;;;;20.77;10.50;;;;;;;12.27;100.00;101187.78;5050897;28;20048;-55
2022/10/25 06:47:29;;;;;;;24.10;11.02;;;;;;;12.22;100.00;101180.03;5051928;28;20036;-51
2022/10/25 06:49:54;;;;;;;25.90;11.02;;;;;;;12.29;100.00;101202.66;5067909;28;20043;-52
2022/10/25 06:52:19;;;;;;;23.75;11.25;;;;;;;12.15;100.00;101153.88;5052431;28;20041;-57
2022/10/25 06:54:45;;;;;;;22.40;10.60;;;;;;;12.05;100.00;101148.06;5051005;28;20542;-55
2022/10/25 06:57:10;;;;;;;21.17;10.35;;;;;;;12.37;100.00;101212.97;5051131;28;20033;-55
2022/10/25 06:59:35;;;;;;;22.10;10.45;;;;;;;12.05;100.00;101157.75;5052252;28;20063;-50
2022/10/25 07:02:01;;;;;;;23.02;10.05;;;;;;;12.38;100.00;101217.31;5050918;28;20040;-56
2022/10/25 07:04:26;;;;;;;19.90;10.30;;;;;;;12.07;100.00;101156.78;5051785;28;20487;-52
2022/10/25 07:06:51;;;;;;;23.15;11.88;;;;;;;12.20;100.00;101179.19;5051102;28;20488;-56
2022/10/25 07:09:17;;;;;;;24.13;12.70;;;;;;;12.55;100.00;101225.53;5052380;28;20040;-49
2022/10/25 07:11:44;;;;;;;24.63;13.63;;;;;;;12.55;100.00;101224.69;5067316;28;20480;-51
2022/10/25 07:14:10;;;;;;;23.27;15.00;;;;;;;12.24;100.00;101179.97;5052148;28;20067;-54
2022/10/25 07:16:36;;;;;;;25.42;14.38;;;;;;;12.61;100.00;101235.88;5050931;28;20040;-49
2022/10/25 07:19:02;;;;;;;22.40;13.30;;;;;;;12.68;100.00;101245.31;5051864;28;20264;-54
2022/10/25 07:21:29;;;;;;;25.80;14.05;;;;;;;12.62;100.00;101215.63;5052000;28;20087;-49
2022/10/25 07:23:54;;;;;;;21.67;13.45;;;;;;;12.77;100.00;101244.16;5051999;28;20040;-48
2022/10/25 07:26:22;;;;;;;18.08;11.82;;;;;;;12.41;100.00;101177.63;5067530;28;20041;-54
2022/10/25 07:28:50;;;;;;;20.40;12.00;;;;;;;12.77;100.00;101246.78;5051877;28;20045;-51
2022/10/25 07:31:18;;;;;;;19.67;11.40;;;;;;;12.78;100.00;101233.50;5051769;28;20037;-55
2022/10/25 07:33:44;;;;;;;18.35;10.88;;;;;;;12.79;100.00;101237.88;5051610;28;20045;-55
2022/10/25 07:36:09;;;;;;;18.92;11.07;;;;;;;12.69;100.00;101204.81;5052263;28;20041;-56
2022/10/25 07:38:34;;;;;;;16.98;10.15;;;;;;;12.98;100.00;101241.63;5051939;28;20045;-53
2022/10/25 07:41:00;;;;;;;17.33;9.80;;;;;;;12.68;100.00;101184.59;5051948;28;20033;-51
2022/10/25 07:43:26;;;;;;;17.45;8.55;;;;;;;13.17;100.00;101251.53;5052254;28;20037;-50
2022/10/25 07:45:51;;;;;;;12.98;8.00;;;;;;;13.07;100.00;101206.06;5055664;28;20124;-51
2022/10/25 07:48:17;;;;;;;14.30;6.78;;;;;;;13.45;100.00;101229.34;5056005;28;20136;-56
2022/10/25 07:50:42;;;;;;;12.70;6.97;;;;;;;13.66;100.00;101242.66;5056046;28;20067;-52
2022/10/25 07:53:08;;;;;;;14.68;6.05;;;;;;;13.63;100.00;101222.44;5053979;28;20492;-55
2022/10/25 07:55:33;;;;;;;13.82;5.65;;;;;;;13.38;100.00;101185.50;5055611;28;20037;-52
2022/10/25 07:58:00;;;;;;;13.60;6.30;;;;;;;13.64;100.00;101250.63;5055451;28;20116;-52
2022/10/25 08:00:26;;;;;;;10.45;5.57;;;;;;;13.71;100.00;101257.41;5054213;28;20060;-57
2022/10/25 08:02:51;;;;;;;11.77;5.95;;;;;;;13.67;100.00;101263.75;5055354;28;20467;-52
2022/10/25 08:05:16;;;;;;;10.52;6.18;;;;;;;13.37;100.00;101207.59;5055462;28;20503;-56
2022/10/25 08:07:41;;;;;;;11.63;6.03;;;;;;;13.78;100.00;101269.47;5055129;28;20250;-53
2022/10/25 08:10:07;;;;;;;12.43;5.70;;;;;;;13.72;100.00;101271.50;5054867;28;20036;-52
2022/10/25 08:12:32;;;;;;;11.90;5.38;;;;;;;13.75;100.00;101282.81;5054692;28;20519;-51
2022/10/25 08:14:58;;;;;;;10.23;5.38;;;;;;;13.74;100.00;101278.47;5055193;28;20033;-53
2022/10/25 08:17:23;;;;;;;14.05;6.32;;;;;;;13.77;100.00;101277.50;5055001;28;20029;-49
2022/10/25 08:19:48;;;;;;;12.55;7.72;;;;;;;13.89;100.00;101282.31;5053613;28;20496;-53
2022/10/25 08:22:13;;;;;;;11.93;7.22;;;;;;;13.88;100.00;101268.22;5054852;28;20112;-52
2022/10/25 08:24:39;;;;;;;11.55;7.63;;;;;;;14.10;100.00;101290.25;5054602;28;20044;-51
2022/10/25 08:27:05;;;;;;;15.95;7.90;;;;;;;14.06;100.00;101295.75;5055109;28;20033;-49
2022/10/25 08:29:30;;;;;;;16.25;8.73;;;;;;;13.92;100.00;101274.25;5055058;28;20387;-52
2022/10/25 08:31:55;;;;;;;13.18;7.78;;;;;;;14.03;100.00;101298.50;5054347;28;20083;-48
2022/10/25 08:34:21;;;;;;;13.60;8.38;;;;;;;14.04;100.00;101305.50;5054635;28;20056;-51
2022/10/25 08:36:47;;;;;;;14.30;8.70;;;;;;;14.02;100.00;101304.72;5054549;28;20041;-50
2022/10/25 08:39:13;;;;;;;12.75;9.27;;;;;;;14.16;100.00;101305.03;5054626;28;20554;-52
2022/10/25 08:41:52;;;;;;;13.55;9.00;;;;;;;14.14;100.00;101306.88;5054419;28;20041;-52
2022/10/25 08:44:42;;;;;;;16.15;10.27;;;;;;;14.24;100.00;101317.97;5054312;28;20033;-53
2022/10/25 08:47:45;;;;;;;15.13;13.57;;;;;;;14.40;100.00;101301.44;5054517;28;20031;-50
2022/10/25 08:50:23;;;;;;;15.35;12.35;;;;;;;14.54;100.00;101307.03;5053981;28;20049;-49
2022/10/25 08:52:54;;;;;;;16.67;12.52;;;;;;;14.55;100.00;101284.03;5053052;28;20075;-52
2022/10/25 08:55:48;;;;;;;17.45;13.98;;;;;;;14.64;100.00;101318.09;5053127;28;20384;-52
2022/10/25 08:58:23;;;;;;;21.77;14.43;;;;;;;14.57;100.00;101306.91;5053024;28;20464;-57
2022/10/25 09:00:48;;;;;;;17.13;13.25;;;;;;;14.75;100.00;101322.94;5052727;28;20040;-55
2022/10/25 09:03:32;;;;;;;21.00;15.00;;;;;;;14.54;100.00;101255.81;5054204;28;20044;-51
2022/10/25 09:06:19;;;;;;;19.27;13.70;;;;;;;14.88;100.00;101334.78;5054103;28;20033;-54
2022/10/25 09:09:17;;;;;;;17.83;14.02;;;;;;;14.84;100.00;101331.38;5053931;28;20143;-51
2022/10/25 09:11:51;;;;;;;20.75;15.50;;;;;;;14.74;100.00;101337.97;5052915;28;20067;-51
2022/10/25 09:14:38;;;;;;;20.23;15.20;;;;;;;14.67;100.00;101341.84;5052624;28;20033;-56
2022/10/25 09:17:32;;;;;;;21.17;16.35;;;;;;;14.59;100.00;101343.94;5054072;28;20028;-51
2022/10/25 09:20:23;;;;;;;22.55;13.90;;;;;;;14.28;100.00;101291.31;5045136;28;20070;-48
2022/10/25 09:22:55;;;;;;;;;;;;;;;14.65;100.00;101354.28;5052029;28;20086;-52
2022/10/25 09:25:22;;;;;;;;;;;;;;;14.75;100.00;101347.66;5053971;28;20003;-54
2022/10/25 09:27:58;;;;;;;16.48;13.85;;;;;;;14.73;100.00;101353.97;5068447;28;19924;-52
2022/10/25 09:30:23;;;;;;;18.73;15.02;;;;;;;14.53;100.00;101350.34;5053776;28;20036;-51
2022/10/25 09:32:52;;;;;;;23.25;14.90;;;;;;;14.34;100.00;101312.28;5053894;28;20443;-55
2022/10/25 09:35:32;;;;;;;22.83;15.75;;;;;;;14.39;100.00;101326.19;5052273;28;20049;-56
2022/10/25 09:38:19;;;;;;;17.02;15.20;;;;;;;14.18;100.00;101310.28;5050562;28;20037;-53
2022/10/25 09:40:48;;;;;;;18.50;16.38;;;;;;;14.47;100.00;101381.50;5052165;28;20091;-51
2022/10/25 09:43:17;;;;;;;20.48;15.73;;;;;;;14.20;100.00;101321.66;5051854;28;20040;-52
2022/10/25 09:45:47;;;;;;;20.02;15.80;;;;;;;14.50;100.00;101376.97;5035731;28;20040;-49
2022/10/25 09:48:28;;;;;;;19.70;15.43;;;;;;;14.64;100.00;101371.09;5052217;28;20121;-50
2022/10/25 09:51:13;;;;;;;18.75;14.85;;;;;;;14.84;100.00;101389.69;5053142;28;20090;-52
2022/10/25 09:53:40;;;;;;;18.85;16.45;;;;;;;14.80;100.00;101350.97;5052120;28;20033;-49
2022/10/25 09:56:05;;;;;;;21.30;14.95;;;;;;;15.27;100.00;101390.53;5051977;28;20111;-50
2022/10/25 09:58:33;;;;;;;19.17;15.10;;;;;;;15.45;100.00;101395.03;5052984;28;20090;-49
2022/10/25 10:01:01;;;;;;;18.98;15.43;;;;;;;15.51;100.00;101394.81;5035111;28;20041;-51
2022/10/25 10:03:28;;;;;;;18.58;14.38;;;;;;;15.40;100.00;101392.59;5051496;28;20033;-58
2022/10/25 10:05:56;;;;;;;19.08;15.77;;;;;;;15.09;100.00;101349.78;5052406;28;20036;-55
2022/10/25 10:08:23;;;;;;;16.30;14.60;;;;;;;15.05;100.00;101342.88;5051503;28;20047;-52
2022/10/25 10:10:49;;;;;;;17.02;14.25;;;;;;;15.61;100.00;101390.84;5053255;28;20040;-49
2022/10/25 10:13:19;;;;;;;16.88;13.77;;;;;;;15.79;100.00;101391.81;5051472;28;20494;-48
2022/10/25 10:15:51;;;;;;;17.52;13.88;;;;;;;16.00;100.00;101418.22;5052842;28;20041;-51
2022/10/25 10:18:24;;;;;;;16.55;13.15;;;;;;;16.10;100.00;101413.38;5051274;28;20068;-51
2022/10/25 10:21:00;;;;;;;20.08;16.02;;;;;;;15.73;100.00;101356.63;5051977;28;20033;-50
2022/10/25 10:23:27;;;;;;;14.88;12.50;;;;;;;16.06;100.00;101414.44;5052817;28;20048;-52
2022/10/25 10:25:52;;;;;;;14.45;13.15;;;;;;;16.07;100.00;101419.69;5033874;28;20449;-53
2022/10/25 10:28:18;;;;;;;16.80;12.13;;;;;;;16.23;100.00;101407.41;5051606;28;20069;-49
2022/10/25 10:30:52;;;;;;;14.45;11.65;;;;;;;16.57;100.00;101416.47;5052500;28;20029;-53
2022/10/25 10:33:17;;;;;;;12.82;10.77;;;;;;;16.37;100.00;101358.09;5051162;28;20032;-51
2022/10/25 10:35:42;;;;;;;14.90;10.35;;;;;;;16.76;100.00;101418.16;5052594;28;20041;-50
2022/10/25 10:38:19;;;;;;;15.70;9.98;;;;;;;16.64;100.00;101417.91;5051922;28;20145;-54
2022/10/25 10:40:44;;;;;;;10.90;8.23;;;;;;;16.51;100.00;101425.59;5050947;28;20202;-51
2022/10/25 10:43:26;;;;;;;11.93;8.40;;;;;;;16.52;100.00;101435.25;5052341;28;20481;-49
2022/10/25 10:46:01;;;;;;;9.88;7.85;;;;;;;16.56;100.00;101418.28;5052442;28;20025;-48
2022/10/25 10:48:32;;;;;;;12.77;8.63;;;;;;;16.78;100.00;101423.44;5052291;28;20087;-52
2022/10/25 10:50:57;;;;;;;10.00;6.60;;;;;;;16.91;100.00;101419.22;5052101;28;20062;-49
2022/10/25 10:53:28;;;;;;;11.88;7.13;;;;;;;17.17;100.00;101418.78;5052172;28;20037;-53
2022/10/25 10:55:56;;;;;;;9.13;6.05;;;;;;;17.42;100.00;101415.75;5050110;28;20025;-48
2022/10/25 10:58:30;;;;;;;10.35;6.40;;;;;;;17.47;100.00;101424.34;5050546;28;20029;-52
2022/10/25 11:01:01;;;;;;;9.90;5.93;;;;;;;17.66;100.00;101432.28;5049318;28;20036;-49
2022/10/25 11:03:33;;;;;;;;;;;;;;;17.76;100.00;101428.19;5049261;28;20033;-51
2022/10/25 11:05:59;;;;;;;8.63;4.93;;;;;;;17.80;100.00;101440.41;5065748;28;19923;-51
2022/10/25 11:08:24;;;;;;;12.25;4.80;;;;;;;17.92;100.00;101424.59;5049022;28;20268;-53
2022/10/25 11:10:49;;;;;;;10.65;5.20;;;;;;;18.05;100.00;101430.16;5050369;28;20036;-48
2022/10/25 11:13:17;;;;;;;9.90;4.25;;;;;;;17.75;100.00;101389.16;5048580;28;20052;-51
2022/10/25 11:15:42;;;;;;;8.32;4.20;;;;;;;17.95;100.00;101431.56;5032454;28;20087;-47
2022/10/25 11:18:08;;;;;;;9.27;4.55;;;;;;;17.97;100.00;101432.38;5050570;28;20037;-53